createdAt,value
2019-01-21T00:00:55.428Z,18.68
2019-01-21T00:01:55.465Z,18.70
2019-01-21T00:02:55.433Z,18.65
2019-01-21T00:03:55.404Z,18.66
2019-01-21T00:04:55.409Z,18.66
2019-01-21T00:05:55.385Z,18.62
2019-01-21T00:06:55.343Z,18.62
2019-01-21T00:07:55.329Z,18.60
2019-01-21T00:08:55.491Z,18.59
2019-01-21T00:09:55.308Z,18.63
2019-01-21T00:10:55.304Z,18.62
2019-01-21T00:11:55.296Z,18.55
2019-01-21T00:12:55.296Z,18.60
2019-01-21T00:13:55.303Z,18.63
2019-01-21T00:14:55.261Z,18.66
2019-01-21T00:15:55.264Z,18.70
2019-01-21T00:16:55.294Z,18.68
2019-01-21T00:17:55.308Z,18.70
2019-01-21T00:18:55.369Z,18.70
2019-01-21T00:19:55.203Z,18.66
2019-01-21T00:20:55.320Z,18.63
2019-01-21T00:21:55.187Z,18.65
2019-01-21T00:22:55.170Z,18.59
2019-01-21T00:23:55.177Z,18.58
2019-01-21T00:24:55.147Z,18.62
2019-01-21T00:25:55.137Z,18.59
2019-01-21T00:26:55.156Z,18.56
2019-01-21T00:27:55.117Z,18.55
2019-01-21T00:28:55.118Z,18.53
2019-01-21T00:29:55.083Z,18.56
2019-01-21T00:30:55.080Z,18.62
2019-01-21T00:31:55.084Z,18.55
2019-01-21T00:32:55.069Z,18.56
2019-01-21T00:33:55.072Z,18.62
2019-01-21T00:34:55.052Z,18.65
2019-01-21T00:35:55.032Z,18.63
2019-01-21T00:36:55.021Z,18.58
2019-01-21T00:37:55.039Z,18.60
2019-01-21T00:38:54.991Z,18.60
2019-01-21T00:39:54.986Z,18.52
2019-01-21T00:40:54.960Z,18.56
2019-01-21T00:41:54.953Z,18.53
2019-01-21T00:42:54.960Z,18.50
2019-01-21T00:43:54.949Z,18.47
2019-01-21T00:44:54.934Z,18.53
2019-01-21T00:45:54.931Z,18.53
2019-01-21T00:46:54.894Z,18.55
2019-01-21T00:47:54.886Z,18.56
2019-01-21T00:48:54.889Z,18.55
2019-01-21T00:49:54.866Z,18.59
2019-01-21T00:50:54.943Z,18.55
2019-01-21T00:51:54.847Z,18.62
2019-01-21T00:52:54.826Z,18.59
2019-01-21T00:53:54.843Z,18.50
2019-01-21T00:54:54.806Z,18.58
2019-01-21T00:55:54.793Z,18.53
2019-01-21T00:56:54.781Z,18.55
2019-01-21T00:57:54.783Z,18.55
2019-01-21T00:58:54.759Z,18.53
2019-01-21T00:59:54.764Z,18.53
2019-01-21T01:00:54.747Z,18.49
2019-01-21T01:01:54.725Z,18.58
2019-01-21T01:02:54.723Z,18.47
2019-01-21T01:03:54.740Z,18.43
2019-01-21T01:04:54.715Z,18.45
2019-01-21T01:05:54.689Z,18.44
2019-01-21T01:06:54.698Z,18.52
2019-01-21T01:07:54.668Z,18.50
2019-01-21T01:08:54.653Z,18.50
2019-01-21T01:09:54.646Z,18.53
2019-01-21T01:10:54.633Z,18.59
2019-01-21T01:11:54.613Z,18.58
2019-01-21T01:12:54.606Z,18.56
2019-01-21T01:13:54.596Z,18.63
2019-01-21T01:14:54.594Z,18.62
2019-01-21T01:15:54.576Z,18.56
2019-01-21T01:16:54.570Z,18.56
2019-01-21T01:17:54.563Z,18.60
2019-01-21T01:18:54.548Z,18.56
2019-01-21T01:19:54.553Z,18.52
2019-01-21T01:20:54.525Z,18.53
2019-01-21T01:21:54.502Z,18.45
2019-01-21T01:22:54.507Z,18.50
2019-01-21T01:23:54.478Z,18.53
2019-01-21T01:24:54.508Z,18.53
2019-01-21T01:25:54.457Z,18.50
2019-01-21T01:26:54.455Z,18.58
2019-01-21T01:27:54.456Z,18.56
2019-01-21T01:28:54.441Z,18.62
2019-01-21T01:29:54.449Z,18.56
2019-01-21T01:30:54.429Z,18.59
2019-01-21T01:31:54.419Z,18.59
2019-01-21T01:32:54.400Z,18.56
2019-01-21T01:33:54.368Z,18.60
2019-01-21T01:34:54.373Z,18.50
2019-01-21T01:35:54.354Z,18.44
2019-01-21T01:36:54.335Z,18.53
2019-01-21T01:37:54.356Z,18.49
2019-01-21T01:38:54.327Z,18.50
2019-01-21T01:39:54.321Z,18.47
2019-01-21T01:40:54.324Z,18.44
2019-01-21T01:41:54.287Z,18.49
2019-01-21T01:42:54.378Z,18.47
2019-01-21T01:43:54.285Z,18.47
2019-01-21T01:44:54.311Z,18.56
2019-01-21T01:45:54.323Z,18.53
2019-01-21T01:46:54.233Z,18.58
2019-01-21T01:47:54.285Z,18.55
2019-01-21T01:48:54.203Z,18.53
2019-01-21T01:49:54.190Z,18.52
2019-01-21T01:50:54.299Z,18.53
2019-01-21T01:51:54.164Z,18.53
2019-01-21T01:52:54.158Z,18.52
2019-01-21T01:53:54.144Z,18.47
2019-01-21T01:54:54.132Z,18.43
2019-01-21T01:55:54.209Z,18.44
2019-01-21T01:56:54.111Z,18.44
2019-01-21T01:57:54.113Z,18.44
2019-01-21T01:58:54.111Z,18.52
2019-01-21T01:59:54.091Z,18.59
2019-01-21T02:00:54.110Z,18.47
2019-01-21T02:01:54.080Z,18.56
2019-01-21T02:02:54.073Z,18.50
2019-01-21T02:03:54.090Z,18.43
2019-01-21T02:04:54.047Z,18.49
2019-01-21T02:05:54.075Z,18.49
2019-01-21T02:06:54.008Z,18.52
2019-01-21T02:07:54.023Z,18.40
2019-01-21T02:08:53.982Z,18.50
2019-01-21T02:09:54.048Z,18.43
2019-01-21T02:10:54.017Z,18.38
2019-01-21T02:11:53.945Z,18.37
2019-01-21T02:12:53.931Z,18.43
2019-01-21T02:13:53.922Z,18.44
2019-01-21T02:14:53.919Z,18.44
2019-01-21T02:15:53.934Z,18.45
2019-01-21T02:16:53.894Z,18.44
2019-01-21T02:17:53.891Z,18.52
2019-01-21T02:18:53.890Z,18.50
2019-01-21T02:19:53.852Z,18.50
2019-01-21T02:20:53.986Z,18.40
2019-01-21T02:21:53.844Z,18.41
2019-01-21T02:22:53.820Z,18.40
2019-01-21T02:23:53.814Z,18.38
2019-01-21T02:24:53.799Z,18.37
2019-01-21T02:25:54.268Z,18.37
2019-01-21T02:26:53.781Z,18.40
2019-01-21T02:27:53.799Z,18.40
2019-01-21T02:28:53.765Z,18.41
2019-01-21T02:29:53.764Z,18.37
2019-01-21T02:30:53.764Z,18.41
2019-01-21T02:31:53.718Z,18.47
2019-01-21T02:32:53.732Z,18.47
2019-01-21T02:33:53.697Z,18.49
2019-01-21T02:34:53.685Z,18.45
2019-01-21T02:35:53.689Z,18.45
2019-01-21T02:36:53.662Z,18.45
2019-01-21T02:37:53.656Z,18.43
2019-01-21T02:38:53.645Z,18.40
2019-01-21T02:39:53.627Z,18.43
2019-01-21T02:40:53.635Z,18.44
2019-01-21T02:41:53.630Z,18.43
2019-01-21T02:42:53.624Z,18.41
2019-01-21T02:43:53.583Z,18.40
2019-01-21T02:44:53.623Z,18.35
2019-01-21T02:45:53.589Z,18.43
2019-01-21T02:46:53.577Z,18.49
2019-01-21T02:47:59.958Z,18.40
2019-01-21T02:48:54.547Z,18.43
2019-01-21T02:49:53.531Z,18.44
2019-01-21T02:50:53.613Z,18.49
2019-01-21T02:51:53.507Z,18.50
2019-01-21T02:52:53.486Z,18.53
2019-01-21T02:53:53.515Z,18.45
2019-01-21T02:54:53.461Z,18.49
2019-01-21T02:55:53.467Z,18.44
2019-01-21T02:56:53.445Z,18.44
2019-01-21T02:57:53.432Z,18.37
2019-01-21T02:58:53.419Z,18.41
2019-01-21T02:59:53.412Z,18.41
2019-01-21T03:00:53.492Z,18.43
2019-01-21T03:01:53.448Z,18.40
2019-01-21T03:02:53.379Z,18.43
2019-01-21T03:03:53.372Z,18.45
2019-01-21T03:04:53.352Z,18.40
2019-01-21T03:05:53.431Z,18.44
2019-01-21T03:06:53.333Z,18.34
2019-01-21T03:07:53.315Z,18.40
2019-01-21T03:08:53.320Z,18.40
2019-01-21T03:09:53.300Z,18.44
2019-01-21T03:10:53.286Z,18.40
2019-01-21T03:11:53.282Z,18.40
2019-01-21T03:12:53.268Z,18.44
2019-01-21T03:13:53.254Z,18.53
2019-01-21T03:14:53.250Z,18.45
2019-01-21T03:15:53.316Z,18.43
2019-01-21T03:16:53.230Z,18.35
2019-01-21T03:17:53.201Z,18.38
2019-01-21T03:18:53.203Z,18.37
2019-01-21T03:19:53.188Z,18.43
2019-01-21T03:20:53.183Z,18.38
2019-01-21T03:21:53.165Z,18.37
2019-01-21T03:22:53.147Z,18.35
2019-01-21T03:23:53.152Z,18.38
2019-01-21T03:24:53.125Z,18.41
2019-01-21T03:25:53.127Z,18.41
2019-01-21T03:26:53.163Z,18.37
2019-01-21T03:27:53.131Z,18.43
2019-01-21T03:28:53.092Z,18.45
2019-01-21T03:29:53.135Z,18.45
2019-01-21T03:30:53.063Z,18.44
2019-01-21T03:31:53.088Z,18.33
2019-01-21T03:32:53.049Z,18.37
2019-01-21T03:33:53.037Z,18.40
2019-01-21T03:34:53.021Z,18.45
2019-01-21T03:35:53.018Z,18.29
2019-01-21T03:36:53.025Z,18.31
2019-01-21T03:37:52.996Z,18.31
2019-01-21T03:38:52.986Z,18.31
2019-01-21T03:39:52.985Z,18.34
2019-01-21T03:40:52.955Z,18.34
2019-01-21T03:41:52.991Z,18.40
2019-01-21T03:42:52.944Z,18.43
2019-01-21T03:43:52.928Z,18.38
2019-01-21T03:44:52.902Z,18.34
2019-01-21T03:45:52.900Z,18.35
2019-01-21T03:46:52.885Z,18.38
2019-01-21T03:47:52.865Z,18.35
2019-01-21T03:48:52.866Z,18.43
2019-01-21T03:49:52.853Z,18.40
2019-01-21T03:50:52.883Z,18.38
2019-01-21T03:51:52.832Z,18.45
2019-01-21T03:52:52.810Z,18.41
2019-01-21T03:53:52.831Z,18.37
2019-01-21T03:54:52.791Z,18.35
2019-01-21T03:55:52.780Z,18.43
2019-01-21T03:56:52.792Z,18.38
2019-01-21T03:57:52.756Z,18.41
2019-01-21T03:58:52.745Z,18.37
2019-01-21T03:59:52.749Z,18.43
2019-01-21T04:00:52.723Z,18.43
2019-01-21T04:01:52.718Z,18.40
2019-01-21T04:02:52.706Z,18.43
2019-01-21T04:03:52.704Z,18.45
2019-01-21T04:04:52.676Z,18.43
2019-01-21T04:05:52.668Z,18.40
2019-01-21T04:06:52.659Z,18.41
2019-01-21T04:07:52.678Z,18.34
2019-01-21T04:08:52.817Z,18.45
2019-01-21T04:09:52.631Z,18.35
2019-01-21T04:10:52.620Z,18.34
2019-01-21T04:11:52.608Z,18.34
2019-01-21T04:12:52.611Z,18.31
2019-01-21T04:13:52.604Z,18.37
2019-01-21T04:14:52.565Z,18.31
2019-01-21T04:15:52.570Z,18.40
2019-01-21T04:16:52.562Z,18.40
2019-01-21T04:17:52.550Z,18.38
2019-01-21T04:18:52.526Z,18.41
2019-01-21T04:19:52.511Z,18.43
2019-01-21T04:20:52.566Z,18.38
2019-01-21T04:21:52.503Z,18.40
2019-01-21T04:22:52.512Z,18.26
2019-01-21T04:23:52.462Z,18.29
2019-01-21T04:24:52.457Z,18.20
2019-01-21T04:25:52.447Z,18.29
2019-01-21T04:26:52.433Z,18.22
2019-01-21T04:27:52.478Z,18.22
2019-01-21T04:28:52.440Z,18.19
2019-01-21T04:29:52.409Z,18.33
2019-01-21T04:30:52.493Z,18.33
2019-01-21T04:31:52.423Z,18.29
2019-01-21T04:32:52.394Z,18.31
2019-01-21T04:33:52.418Z,18.34
2019-01-21T04:34:52.457Z,18.35
2019-01-21T04:35:52.349Z,18.38
2019-01-21T04:36:52.333Z,18.31
2019-01-21T04:37:52.328Z,18.29
2019-01-21T04:38:52.294Z,18.29
2019-01-21T04:39:52.295Z,18.33
2019-01-21T04:40:52.285Z,18.28
2019-01-21T04:41:52.273Z,18.23
2019-01-21T04:42:52.269Z,18.33
2019-01-21T04:43:52.244Z,18.23
2019-01-21T04:44:52.234Z,18.22
2019-01-21T04:45:52.290Z,18.22
2019-01-21T04:46:52.215Z,18.34
2019-01-21T04:47:52.207Z,18.31
2019-01-21T04:48:52.190Z,18.40
2019-01-21T04:49:52.186Z,18.40
2019-01-21T04:50:52.322Z,18.35
2019-01-21T04:51:52.154Z,18.38
2019-01-21T04:52:52.171Z,18.43
2019-01-21T04:53:52.151Z,18.43
2019-01-21T04:54:52.125Z,18.34
2019-01-21T04:55:52.105Z,18.26
2019-01-21T04:56:52.100Z,18.33
2019-01-21T04:57:52.090Z,18.22
2019-01-21T04:58:52.096Z,18.29
2019-01-21T04:59:52.172Z,18.22
2019-01-21T05:00:52.058Z,18.20
2019-01-21T05:01:52.042Z,18.18
2019-01-21T05:02:52.034Z,18.19
2019-01-21T05:03:52.069Z,18.23
2019-01-21T05:04:52.018Z,18.22
2019-01-21T05:05:52.003Z,18.22
2019-01-21T05:06:51.995Z,18.23
2019-01-21T05:07:51.993Z,18.23
2019-01-21T05:08:51.984Z,18.15
2019-01-21T05:09:51.996Z,18.19
2019-01-21T05:10:51.948Z,18.26
2019-01-21T05:11:51.935Z,18.28
2019-01-21T05:12:51.977Z,18.41
2019-01-21T05:13:51.922Z,18.38
2019-01-21T05:14:51.910Z,18.40
2019-01-21T05:15:51.960Z,18.33
2019-01-21T05:16:51.874Z,18.31
2019-01-21T05:17:51.863Z,18.22
2019-01-21T05:18:51.909Z,18.20
2019-01-21T05:19:51.866Z,18.22
2019-01-21T05:20:51.931Z,18.18
2019-01-21T05:21:51.823Z,18.20
2019-01-21T05:22:51.815Z,18.25
2019-01-21T05:23:51.831Z,18.13
2019-01-21T05:24:51.782Z,18.15
2019-01-21T05:25:51.780Z,18.22
2019-01-21T05:26:51.786Z,18.25
2019-01-21T05:27:51.749Z,18.23
2019-01-21T05:28:51.748Z,18.34
2019-01-21T05:29:51.744Z,18.19
2019-01-21T05:30:51.713Z,18.25
2019-01-21T05:31:51.701Z,18.33
2019-01-21T05:32:51.695Z,18.29
2019-01-21T05:33:51.706Z,18.25
2019-01-21T05:34:51.677Z,18.28
2019-01-21T05:35:51.687Z,18.20
2019-01-21T05:36:51.674Z,18.19
2019-01-21T05:37:51.732Z,18.18
2019-01-21T05:38:51.645Z,18.13
2019-01-21T05:39:51.619Z,18.04
2019-01-21T05:40:51.600Z,17.92
2019-01-21T05:41:51.592Z,17.86
2019-01-21T05:42:51.588Z,17.82
2019-01-21T05:43:51.576Z,17.63
2019-01-21T05:44:51.611Z,17.67
2019-01-21T05:45:51.558Z,17.68
2019-01-21T05:46:51.542Z,17.65
2019-01-21T05:47:51.538Z,17.68
2019-01-21T05:48:51.530Z,17.68
2019-01-21T05:49:51.532Z,17.82
2019-01-21T05:50:51.561Z,17.76
2019-01-21T05:51:51.572Z,17.78
2019-01-21T05:52:51.485Z,17.74
2019-01-21T05:53:51.467Z,17.80
2019-01-21T05:54:51.469Z,17.79
2019-01-21T05:55:51.445Z,17.82
2019-01-21T05:56:51.441Z,17.76
2019-01-21T05:57:51.470Z,17.78
2019-01-21T05:58:51.418Z,17.86
2019-01-21T05:59:51.421Z,17.90
2019-01-21T06:00:51.399Z,17.92
2019-01-21T06:01:51.366Z,17.98
2019-01-21T06:02:51.390Z,18.01
2019-01-21T06:03:51.358Z,18.16
2019-01-21T06:04:51.358Z,18.18
2019-01-21T06:05:51.375Z,18.13
2019-01-21T06:06:51.313Z,18.19
2019-01-21T06:07:51.305Z,18.20
2019-01-21T06:08:51.287Z,18.33
2019-01-21T06:09:51.288Z,18.38
2019-01-21T06:10:51.267Z,18.40
2019-01-21T06:11:51.262Z,18.47
2019-01-21T06:12:51.258Z,18.44
2019-01-21T06:13:51.253Z,18.58
2019-01-21T06:14:51.231Z,18.58
2019-01-21T06:15:51.304Z,18.60
2019-01-21T06:16:51.216Z,18.62
2019-01-21T06:17:51.185Z,18.59
2019-01-21T06:18:57.235Z,18.65
2019-01-21T06:19:52.177Z,18.68
2019-01-21T06:20:51.201Z,18.74
2019-01-21T06:21:51.209Z,18.63
2019-01-21T06:22:51.131Z,18.77
2019-01-21T06:23:51.139Z,18.74
2019-01-21T06:24:51.126Z,18.77
2019-01-21T06:25:51.096Z,18.68
2019-01-21T06:26:51.099Z,18.73
2019-01-21T06:27:51.073Z,18.74
2019-01-21T06:28:51.063Z,18.75
2019-01-21T06:29:51.056Z,18.74
2019-01-21T06:30:51.049Z,18.66
2019-01-21T06:31:51.042Z,18.63
2019-01-21T06:32:51.022Z,18.66
2019-01-21T06:33:51.068Z,18.65
2019-01-21T06:34:51.006Z,18.62
2019-01-21T06:35:51.034Z,18.63
2019-01-21T06:36:50.975Z,18.58
2019-01-21T06:37:50.991Z,18.55
2019-01-21T06:38:50.952Z,18.56
2019-01-21T06:39:50.940Z,18.52
2019-01-21T06:40:50.961Z,18.50
2019-01-21T06:41:50.925Z,18.50
2019-01-21T06:42:50.923Z,18.43
2019-01-21T06:43:50.912Z,18.38
2019-01-21T06:44:50.914Z,18.34
2019-01-21T06:45:50.908Z,18.22
2019-01-21T06:46:50.862Z,18.19
2019-01-21T06:47:50.885Z,18.15
2019-01-21T06:48:50.842Z,18.19
2019-01-21T06:49:50.909Z,18.29
2019-01-21T06:50:50.954Z,18.23
2019-01-21T06:51:50.809Z,18.19
2019-01-21T06:52:50.819Z,18.28
2019-01-21T06:53:50.783Z,18.23
2019-01-21T06:54:50.773Z,18.23
2019-01-21T06:55:50.778Z,18.26
2019-01-21T06:56:50.777Z,18.29
2019-01-21T06:57:50.816Z,18.29
2019-01-21T06:58:50.747Z,18.40
2019-01-21T06:59:50.755Z,18.29
2019-01-21T07:00:50.711Z,18.38
2019-01-21T07:01:50.841Z,18.41
2019-01-21T07:02:50.687Z,18.37
2019-01-21T07:03:50.673Z,18.41
2019-01-21T07:04:50.743Z,18.40
2019-01-21T07:05:50.694Z,18.43
2019-01-21T07:07:50.633Z,18.45
2019-01-21T07:08:50.737Z,18.50
2019-01-21T07:09:50.609Z,18.53
2019-01-21T07:10:50.612Z,18.56
2019-01-21T07:11:50.719Z,18.66
2019-01-21T07:12:50.571Z,18.74
2019-01-21T07:13:50.580Z,18.78
2019-01-21T07:14:50.565Z,18.84
2019-01-21T07:15:50.549Z,18.86
2019-01-21T07:16:50.535Z,18.89
2019-01-21T07:17:50.538Z,18.93
2019-01-21T07:18:50.536Z,18.89
2019-01-21T07:19:50.496Z,18.89
2019-01-21T07:20:50.563Z,18.92
2019-01-21T07:21:50.474Z,18.93
2019-01-21T07:22:50.463Z,18.90
2019-01-21T07:23:50.550Z,18.96
2019-01-21T07:24:50.444Z,18.98
2019-01-21T07:25:50.443Z,18.98
2019-01-21T07:26:50.425Z,19.02
2019-01-21T07:27:50.617Z,19.00
2019-01-21T07:28:50.434Z,19.15
2019-01-21T07:29:50.689Z,19.12
2019-01-21T07:30:50.375Z,19.19
2019-01-21T07:31:50.366Z,19.18
2019-01-21T07:32:50.456Z,19.21
2019-01-21T07:33:50.363Z,19.26
2019-01-21T07:34:50.329Z,19.22
2019-01-21T07:35:50.385Z,19.24
2019-01-21T07:36:50.318Z,19.33
2019-01-21T07:37:50.319Z,19.30
2019-01-21T07:38:50.368Z,19.30
2019-01-21T07:39:51.234Z,19.30
2019-01-21T07:40:50.734Z,19.29
2019-01-21T07:41:50.290Z,19.27
2019-01-21T07:42:50.278Z,19.26
2019-01-21T07:43:50.243Z,19.26
2019-01-21T07:44:50.268Z,19.19
2019-01-21T07:45:51.207Z,19.36
2019-01-21T07:46:50.256Z,19.34
2019-01-21T07:47:50.524Z,19.33
2019-01-21T07:48:50.298Z,19.29
2019-01-21T07:49:50.410Z,19.34
2019-01-21T07:50:50.233Z,19.33
2019-01-21T07:51:50.148Z,19.33
2019-01-21T07:52:50.167Z,19.24
2019-01-21T07:53:50.506Z,19.29
2019-01-21T07:54:50.177Z,19.31
2019-01-21T07:55:50.101Z,19.29
2019-01-21T07:56:50.087Z,19.27
2019-01-21T07:57:50.137Z,19.39
2019-01-21T07:58:50.097Z,19.33
2019-01-21T07:59:50.522Z,19.34
2019-01-21T08:00:50.045Z,19.37
2019-01-21T08:01:50.277Z,19.31
2019-01-21T08:02:50.090Z,19.24
2019-01-21T08:03:50.012Z,19.31
2019-01-21T08:04:50.146Z,19.26
2019-01-21T08:05:50.087Z,19.15
2019-01-21T08:06:50.045Z,19.12
2019-01-21T08:07:49.959Z,19.14
2019-01-21T08:08:49.961Z,19.14
2019-01-21T08:09:49.940Z,19.08
2019-01-21T08:10:49.935Z,18.99
2019-01-21T08:11:50.112Z,19.02
2019-01-21T08:12:49.923Z,19.00
2019-01-21T08:13:49.918Z,18.98
2019-01-21T08:14:49.893Z,18.89
2019-01-21T08:15:49.949Z,18.96
2019-01-21T08:16:49.863Z,18.92
2019-01-21T08:17:49.952Z,18.95
2019-01-21T08:18:50.280Z,19.00
2019-01-21T08:19:49.849Z,19.00
2019-01-21T08:20:49.928Z,19.02
2019-01-21T08:21:49.929Z,18.99
2019-01-21T08:22:49.797Z,18.96
2019-01-21T08:23:49.798Z,18.96
2019-01-21T08:24:49.809Z,18.92
2019-01-21T08:25:49.768Z,18.95
2019-01-21T08:26:49.758Z,18.95
2019-01-21T08:27:49.751Z,18.90
2019-01-21T08:28:49.738Z,18.83
2019-01-21T08:29:49.839Z,18.86
2019-01-21T08:30:49.740Z,18.86
2019-01-21T08:31:49.741Z,18.89
2019-01-21T08:32:49.727Z,18.89
2019-01-21T08:33:49.711Z,18.88
2019-01-21T08:34:49.858Z,18.92
2019-01-21T08:35:50.390Z,18.90
2019-01-21T08:36:49.717Z,18.93
2019-01-21T08:37:49.808Z,18.90
2019-01-21T08:38:49.983Z,18.88
2019-01-21T08:39:49.625Z,18.81
2019-01-21T08:40:49.610Z,18.86
2019-01-21T08:41:49.667Z,18.90
2019-01-21T08:42:49.629Z,18.81
2019-01-21T08:43:49.575Z,18.90
2019-01-21T08:44:49.622Z,18.88
2019-01-21T08:45:49.563Z,18.84
2019-01-21T08:46:49.583Z,18.83
2019-01-21T08:47:49.613Z,18.92
2019-01-21T08:48:49.513Z,18.86
2019-01-21T08:49:49.622Z,18.98
2019-01-21T08:50:49.605Z,19.00
2019-01-21T08:51:49.470Z,19.00
2019-01-21T08:52:49.473Z,18.98
2019-01-21T08:53:49.448Z,18.98
2019-01-21T08:54:49.818Z,18.98
2019-01-21T08:55:49.477Z,18.90
2019-01-21T08:56:49.418Z,18.90
2019-01-21T08:57:50.318Z,18.95
2019-01-21T08:58:49.443Z,18.95
2019-01-21T08:59:49.415Z,18.90
2019-01-21T09:00:49.379Z,18.93
2019-01-21T09:01:49.367Z,18.86
2019-01-21T09:02:49.529Z,18.83
2019-01-21T09:03:49.465Z,18.98
2019-01-21T09:04:49.366Z,18.88
2019-01-21T09:05:49.439Z,18.90
2019-01-21T09:06:49.601Z,18.92
2019-01-21T09:07:49.432Z,18.90
2019-01-21T09:08:49.285Z,18.90
2019-01-21T09:09:49.279Z,18.95
2019-01-21T09:10:49.344Z,19.00
2019-01-21T09:11:49.256Z,19.04
2019-01-21T09:12:49.258Z,18.98
2019-01-21T09:13:49.260Z,19.02
2019-01-21T09:14:49.250Z,18.99
2019-01-21T09:15:49.261Z,18.98
2019-01-21T09:16:49.194Z,19.08
2019-01-21T09:17:49.182Z,19.08
2019-01-21T09:18:49.200Z,19.02
2019-01-21T09:19:49.200Z,18.90
2019-01-21T09:20:49.300Z,18.90
2019-01-21T09:21:49.139Z,18.81
2019-01-21T09:22:49.134Z,18.95
2019-01-21T09:23:49.144Z,18.92
2019-01-21T09:24:49.113Z,18.99
2019-01-21T09:25:49.108Z,18.81
2019-01-21T09:26:49.094Z,18.90
2019-01-21T09:27:49.154Z,18.93
2019-01-21T09:28:49.068Z,19.00
2019-01-21T09:29:49.050Z,19.02
2019-01-21T09:30:49.051Z,18.98
2019-01-21T09:31:49.028Z,18.98
2019-01-21T09:32:49.044Z,19.08
2019-01-21T09:33:49.010Z,19.04
2019-01-21T09:34:49.001Z,18.98
2019-01-21T09:35:49.075Z,18.95
2019-01-21T09:36:48.970Z,19.02
2019-01-21T09:37:48.960Z,19.02
2019-01-21T09:38:48.968Z,18.98
2019-01-21T09:39:48.946Z,19.00
2019-01-21T09:40:48.938Z,18.98
2019-01-21T09:41:49.011Z,19.07
2019-01-21T09:42:48.926Z,19.02
2019-01-21T09:43:48.914Z,19.02
2019-01-21T09:44:48.879Z,18.98
2019-01-21T09:45:48.892Z,18.99
2019-01-21T09:46:48.860Z,19.00
2019-01-21T09:47:48.948Z,18.99
2019-01-21T09:48:48.849Z,18.98
2019-01-21T09:49:48.830Z,19.00
2019-01-21T09:50:48.845Z,18.98
2019-01-21T09:51:48.840Z,18.95
2019-01-21T09:52:48.816Z,18.95
2019-01-21T09:53:48.861Z,18.99
2019-01-21T09:54:48.777Z,19.02
2019-01-21T09:55:48.767Z,19.02
2019-01-21T09:56:48.750Z,18.98
2019-01-21T09:57:48.743Z,18.98
2019-01-21T09:58:48.738Z,19.04
2019-01-21T09:59:48.723Z,18.98
2019-01-21T10:00:48.765Z,19.04
2019-01-21T10:01:48.700Z,18.98
2019-01-21T10:02:48.696Z,19.11
2019-01-21T10:03:48.707Z,19.14
2019-01-21T10:04:48.730Z,19.16
2019-01-21T10:05:48.656Z,19.30
2019-01-21T10:06:48.921Z,19.22
2019-01-21T10:07:48.651Z,19.24
2019-01-21T10:08:48.626Z,19.22
2019-01-21T10:09:48.605Z,19.30
2019-01-21T10:10:48.593Z,19.24
2019-01-21T10:11:48.626Z,19.15
2019-01-21T10:12:48.603Z,19.11
2019-01-21T10:13:48.626Z,19.19
2019-01-21T10:14:48.572Z,19.24
2019-01-21T10:15:48.538Z,19.22
2019-01-21T10:16:48.533Z,19.24
2019-01-21T10:17:48.533Z,19.11
2019-01-21T10:18:48.515Z,19.12
2019-01-21T10:19:50.704Z,19.12
2019-01-21T10:20:49.803Z,19.18
2019-01-21T10:21:49.161Z,19.11
2019-01-21T10:22:48.558Z,19.12
2019-01-21T10:23:48.452Z,19.11
2019-01-21T10:24:48.494Z,19.12
2019-01-21T10:25:48.427Z,19.19
2019-01-21T10:26:48.429Z,19.18
2019-01-21T10:27:49.493Z,19.14
2019-01-21T10:28:48.403Z,19.21
2019-01-21T10:29:48.391Z,19.21
2019-01-21T10:30:48.373Z,19.09
2019-01-21T10:31:48.368Z,19.26
2019-01-21T10:32:48.381Z,19.24
2019-01-21T10:33:48.348Z,19.30
2019-01-21T10:34:48.344Z,19.24
2019-01-21T10:35:48.325Z,19.27
2019-01-21T10:36:48.316Z,19.31
2019-01-21T10:37:48.308Z,19.26
2019-01-21T10:38:48.345Z,19.33
2019-01-21T10:39:48.293Z,19.33
2019-01-21T10:40:48.257Z,19.29
2019-01-21T10:41:48.257Z,19.21
2019-01-21T10:42:48.238Z,19.19
2019-01-21T10:43:48.231Z,19.22
2019-01-21T10:44:48.385Z,19.34
2019-01-21T10:45:48.204Z,19.16
2019-01-21T10:46:48.209Z,19.30
2019-01-21T10:47:48.188Z,19.26
2019-01-21T10:48:48.168Z,19.26
2019-01-21T10:49:48.175Z,19.29
2019-01-21T10:50:48.303Z,19.30
2019-01-21T10:51:48.148Z,19.27
2019-01-21T10:52:48.135Z,19.22
2019-01-21T10:53:48.174Z,19.22
2019-01-21T10:54:48.103Z,19.33
2019-01-21T10:55:48.131Z,19.34
2019-01-21T10:56:48.149Z,19.29
2019-01-21T10:57:48.084Z,19.31
2019-01-21T10:58:48.060Z,19.26
2019-01-21T10:59:48.095Z,19.34
2019-01-21T11:00:48.045Z,19.27
2019-01-21T11:01:48.029Z,19.27
2019-01-21T11:02:48.096Z,19.31
2019-01-21T11:03:48.013Z,19.27
2019-01-21T11:04:48.007Z,19.33
2019-01-21T11:05:47.987Z,19.33
2019-01-21T11:06:47.969Z,19.29
2019-01-21T11:07:47.973Z,19.33
2019-01-21T11:08:47.957Z,19.31
2019-01-21T11:09:47.992Z,19.29
2019-01-21T11:10:47.936Z,19.29
2019-01-21T11:11:53.828Z,19.30
2019-01-21T11:12:49.020Z,19.31
2019-01-21T11:13:47.891Z,19.33
2019-01-21T11:14:47.936Z,19.36
2019-01-21T11:15:47.876Z,19.41
2019-01-21T11:16:47.906Z,19.34
2019-01-21T11:17:47.852Z,19.37
2019-01-21T11:18:47.838Z,19.33
2019-01-21T11:19:47.872Z,19.41
2019-01-21T11:20:47.889Z,19.37
2019-01-21T11:21:47.811Z,19.48
2019-01-21T11:22:47.809Z,19.37
2019-01-21T11:23:47.917Z,19.40
2019-01-21T11:24:47.778Z,19.41
2019-01-21T11:25:47.802Z,19.44
2019-01-21T11:26:47.748Z,19.41
2019-01-21T11:27:47.763Z,19.48
2019-01-21T11:28:47.748Z,19.44
2019-01-21T11:29:47.750Z,19.51
2019-01-21T11:30:47.703Z,19.49
2019-01-21T11:31:47.740Z,19.52
2019-01-21T11:32:47.688Z,19.52
2019-01-21T11:33:47.673Z,19.55
2019-01-21T11:34:47.672Z,19.64
2019-01-21T11:35:47.673Z,19.66
2019-01-21T11:36:47.691Z,19.52
2019-01-21T11:37:47.678Z,19.62
2019-01-21T11:38:47.613Z,19.59
2019-01-21T11:39:47.626Z,19.49
2019-01-21T11:40:47.597Z,19.62
2019-01-21T11:41:47.699Z,19.55
2019-01-21T11:42:47.596Z,19.52
2019-01-21T11:43:47.979Z,19.58
2019-01-21T11:44:47.548Z,19.58
2019-01-21T11:45:47.538Z,19.56
2019-01-21T11:46:47.539Z,19.59
2019-01-21T11:47:47.542Z,19.62
2019-01-21T11:48:47.518Z,19.66
2019-01-21T11:49:47.585Z,19.66
2019-01-21T11:50:47.618Z,19.67
2019-01-21T11:51:47.495Z,19.58
2019-01-21T11:52:47.469Z,19.59
2019-01-21T11:53:47.449Z,19.59
2019-01-21T11:54:47.435Z,19.64
2019-01-21T11:55:47.456Z,19.73
2019-01-21T11:56:47.432Z,19.69
2019-01-21T11:57:47.411Z,19.70
2019-01-21T11:58:47.393Z,19.69
2019-01-21T11:59:47.385Z,19.64
2019-01-21T12:00:47.383Z,19.74
2019-01-21T12:01:47.382Z,19.73
2019-01-21T12:02:47.423Z,19.82
2019-01-21T12:03:47.344Z,19.70
2019-01-21T12:04:47.331Z,19.89
2019-01-21T12:05:47.327Z,19.88
2019-01-21T12:06:47.308Z,19.85
2019-01-21T12:07:47.303Z,19.89
2019-01-21T12:08:47.331Z,19.89
2019-01-21T12:09:47.293Z,19.82
2019-01-21T12:10:47.278Z,19.88
2019-01-21T12:11:47.360Z,19.95
2019-01-21T12:12:47.252Z,19.92
2019-01-21T12:13:47.264Z,19.95
2019-01-21T12:14:47.236Z,19.89
2019-01-21T12:15:47.208Z,20.03
2019-01-21T12:16:47.270Z,20.00
2019-01-21T12:17:47.210Z,20.06
2019-01-21T12:18:47.187Z,20.04
2019-01-21T12:19:47.181Z,20.03
2019-01-21T12:20:47.258Z,20.10
2019-01-21T12:21:47.192Z,20.10
2019-01-21T12:22:47.154Z,20.13
2019-01-21T12:23:47.127Z,20.13
2019-01-21T12:24:47.125Z,20.14
2019-01-21T12:25:47.105Z,20.22
2019-01-21T12:26:47.099Z,20.25
2019-01-21T12:27:47.132Z,20.21
2019-01-21T12:28:47.081Z,20.21
2019-01-21T12:29:47.069Z,20.13
2019-01-21T12:30:47.054Z,20.18
2019-01-21T12:31:47.071Z,20.21
2019-01-21T12:32:47.096Z,20.18
2019-01-21T12:33:47.043Z,20.29
2019-01-21T12:34:47.029Z,20.29
2019-01-21T12:35:47.000Z,20.21
2019-01-21T12:36:46.980Z,20.18
2019-01-21T12:37:46.961Z,20.21
2019-01-21T12:38:46.953Z,20.13
2019-01-21T12:39:46.946Z,20.09
2019-01-21T12:40:46.936Z,20.10
2019-01-21T12:41:46.936Z,20.07
2019-01-21T12:42:47.034Z,20.10
2019-01-21T12:43:46.904Z,20.04
2019-01-21T12:44:46.958Z,20.07
2019-01-21T12:45:46.875Z,20.09
2019-01-21T12:46:46.912Z,20.10
2019-01-21T12:47:46.960Z,20.13
2019-01-21T12:48:46.853Z,20.09
2019-01-21T12:49:46.850Z,20.09
2019-01-21T12:50:46.915Z,20.09
2019-01-21T12:51:46.801Z,20.16
2019-01-21T12:52:46.839Z,20.21
2019-01-21T12:53:46.803Z,20.21